Akron, Ohio
Current Conditions -  °F | °C
As of 10:16 PM on Thursday 27 Nov 2014 (Local Time) from KAKR Reporting Station
Moderate Snow Moderate Snow  
Wind Chill: 20°   Ceiling: 1300
Heat Index: 29°   Visibility: 0.5mi
Dew Point: 25°   Wind: 10mph
Humidity: 85%   Direction: 310°NW
Pressure: 30.22"   Gusts: 24mph
Location:  41.08°N, 81.51°W
Report Text: KAKR 280316Z AUTO 31009G21KT 1/2SM SN FZFG VV013 M02/M04 A3022 RMK AO2 SNB05 P0000 T10171039 $
Loading
Personal Weather Stations






























Interactive Weather Map New forecast layout! Learn more

10-Day Weather Forecast

Advertisements
Track Severe Weather on mobile